createdAt,value
2022-07-31T00:00:23.782Z,27.00
2022-07-31T00:02:52.417Z,27.10
2022-07-31T00:05:20.163Z,27.10
2022-07-31T00:07:48.861Z,27.10
2022-07-31T00:10:17.192Z,27.10
2022-07-31T00:12:44.979Z,27.10
2022-07-31T00:15:13.111Z,27.10
2022-07-31T00:17:42.072Z,27.10
2022-07-31T00:20:13.809Z,27.10
2022-07-31T00:22:43.003Z,27.10
2022-07-31T00:25:11.560Z,27.20
2022-07-31T00:27:40.176Z,27.20
2022-07-31T00:30:08.524Z,27.30
2022-07-31T00:32:36.362Z,27.30
2022-07-31T00:35:04.136Z,27.30
2022-07-31T00:37:32.659Z,27.30
2022-07-31T00:40:00.500Z,27.40
2022-07-31T00:42:31.537Z,27.40
2022-07-31T00:45:02.325Z,27.50
2022-07-31T00:47:31.474Z,27.60
2022-07-31T00:49:59.631Z,27.60
2022-07-31T00:52:27.340Z,27.70
2022-07-31T00:54:55.138Z,27.70
2022-07-31T00:57:22.958Z,27.70
2022-07-31T00:59:50.884Z,27.70
2022-07-31T01:02:19.193Z,27.70
2022-07-31T01:04:46.953Z,27.70
2022-07-31T01:07:14.723Z,27.80
2022-07-31T01:09:43.010Z,27.90
2022-07-31T01:12:15.705Z,27.90
2022-07-31T01:14:55.167Z,28.10
2022-07-31T01:17:23.761Z,28.20
2022-07-31T01:19:52.542Z,28.30
2022-07-31T01:22:37.486Z,28.30
2022-07-31T01:25:17.752Z,28.40
2022-07-31T01:28:05.167Z,28.50
2022-07-31T01:30:34.217Z,28.50
2022-07-31T01:33:07.281Z,28.70
2022-07-31T01:35:39.367Z,28.80
2022-07-31T01:38:13.518Z,28.90
2022-07-31T01:40:43.746Z,29.10
2022-07-31T01:43:15.443Z,29.20
2022-07-31T01:45:45.274Z,29.30
2022-07-31T01:48:15.239Z,29.40
2022-07-31T01:50:44.401Z,29.50
2022-07-31T01:53:14.532Z,29.50
2022-07-31T01:56:02.233Z,29.50
2022-07-31T01:58:40.399Z,29.60
2022-07-31T02:01:09.263Z,29.60
2022-07-31T02:03:43.676Z,29.70
2022-07-31T02:06:16.075Z,29.70
2022-07-31T02:08:48.230Z,29.70
2022-07-31T02:11:17.698Z,29.60
2022-07-31T02:13:46.340Z,29.70
2022-07-31T02:16:15.732Z,29.60
2022-07-31T02:18:44.016Z,29.70
2022-07-31T02:21:11.874Z,29.70
2022-07-31T02:23:39.673Z,29.80
2022-07-31T02:26:08.056Z,29.80
2022-07-31T02:28:38.385Z,29.80
2022-07-31T02:31:10.901Z,29.80
2022-07-31T02:33:40.666Z,29.80
2022-07-31T02:36:09.483Z,29.80
2022-07-31T02:38:38.830Z,29.80
2022-07-31T02:41:06.728Z,29.80
2022-07-31T02:43:35.447Z,29.80
2022-07-31T02:46:08.411Z,29.80
2022-07-31T02:48:37.946Z,29.80
2022-07-31T02:51:06.204Z,29.80
2022-07-31T02:53:34.442Z,29.90
2022-07-31T02:56:04.817Z,29.90
2022-07-31T02:58:33.518Z,30.00
2022-07-31T03:01:02.605Z,29.90
2022-07-31T03:03:31.410Z,30.00
2022-07-31T03:05:59.225Z,30.00
2022-07-31T03:08:27.637Z,30.00
2022-07-31T03:10:57.462Z,30.10
2022-07-31T03:13:26.564Z,30.20
2022-07-31T03:15:56.376Z,30.20
2022-07-31T03:18:24.638Z,30.20
2022-07-31T03:20:52.909Z,30.30
2022-07-31T03:23:22.696Z,30.30
2022-07-31T03:25:52.150Z,30.40
2022-07-31T03:28:20.743Z,30.40
2022-07-31T03:30:51.253Z,30.40
2022-07-31T03:33:23.401Z,30.50
2022-07-31T03:35:51.427Z,30.50
2022-07-31T03:38:38.699Z,30.50
2022-07-31T03:41:06.951Z,30.60
2022-07-31T03:43:46.827Z,30.60
2022-07-31T03:46:17.706Z,30.70
2022-07-31T03:48:46.715Z,30.90
2022-07-31T03:51:15.721Z,31.00
2022-07-31T03:53:44.903Z,31.10
2022-07-31T03:56:13.142Z,31.20
2022-07-31T03:58:40.873Z,31.30
2022-07-31T04:01:10.496Z,31.30
2022-07-31T04:03:39.829Z,31.30
2022-07-31T04:06:08.946Z,31.40
2022-07-31T04:08:37.510Z,31.30
2022-07-31T04:11:05.195Z,31.40
2022-07-31T04:13:33.989Z,31.40
2022-07-31T04:16:01.762Z,31.40
2022-07-31T04:18:29.553Z,31.40
2022-07-31T04:20:57.514Z,31.40
2022-07-31T04:23:32.282Z,31.30
2022-07-31T04:26:01.073Z,31.30
2022-07-31T04:28:29.057Z,31.30
2022-07-31T04:30:56.826Z,31.30
2022-07-31T04:33:24.893Z,31.20
2022-07-31T04:35:56.018Z,31.20
2022-07-31T04:38:23.747Z,31.20
2022-07-31T04:40:52.286Z,31.10
2022-07-31T04:43:20.019Z,31.10
2022-07-31T04:45:47.898Z,31.10
2022-07-31T04:48:15.584Z,31.00
2022-07-31T04:50:44.209Z,31.10
2022-07-31T04:53:12.380Z,31.10
2022-07-31T04:55:41.098Z,31.10
2022-07-31T04:58:08.920Z,31.10
2022-07-31T05:00:36.983Z,31.10
2022-07-31T05:03:05.137Z,31.20
2022-07-31T05:05:33.322Z,31.30
2022-07-31T05:08:01.812Z,31.30
2022-07-31T05:10:43.287Z,31.30
2022-07-31T05:13:11.063Z,31.30
2022-07-31T05:15:39.055Z,31.40
2022-07-31T05:18:08.122Z,31.30
2022-07-31T05:20:36.095Z,31.30
2022-07-31T05:25:32.133Z,31.20
2022-07-31T05:28:00.968Z,31.30
2022-07-31T05:30:29.919Z,31.40
2022-07-31T05:32:58.930Z,31.60
2022-07-31T05:35:26.768Z,31.80
2022-07-31T05:37:55.358Z,31.90
2022-07-31T05:40:24.025Z,32.00
2022-07-31T05:42:54.720Z,32.10
2022-07-31T05:45:23.542Z,32.10
2022-07-31T05:47:51.515Z,32.20
2022-07-31T05:50:19.522Z,32.30
2022-07-31T05:52:47.271Z,32.40
2022-07-31T05:55:14.953Z,32.60
2022-07-31T05:57:43.796Z,32.70
2022-07-31T06:00:12.718Z,32.80
2022-07-31T06:02:43.285Z,32.90
2022-07-31T06:05:12.030Z,33.00
2022-07-31T06:07:39.741Z,33.10
2022-07-31T06:10:12.459Z,33.20
2022-07-31T06:12:43.925Z,33.30
2022-07-31T06:15:11.810Z,33.30
2022-07-31T06:17:44.277Z,33.30
2022-07-31T06:20:13.800Z,33.30
2022-07-31T06:22:42.038Z,33.10
2022-07-31T06:25:10.332Z,33.00
2022-07-31T06:27:40.355Z,33.00
2022-07-31T06:30:09.633Z,32.90
2022-07-31T06:32:37.630Z,32.80
2022-07-31T06:35:11.328Z,32.80
2022-07-31T06:37:41.669Z,32.70
2022-07-31T06:40:15.940Z,32.60
2022-07-31T06:42:45.676Z,32.40
2022-07-31T06:45:21.617Z,32.30
2022-07-31T06:47:57.822Z,32.20
2022-07-31T06:50:26.724Z,32.00
2022-07-31T06:52:55.387Z,31.80
2022-07-31T06:55:23.261Z,31.70
2022-07-31T06:57:51.883Z,31.70
2022-07-31T07:00:21.113Z,31.50
2022-07-31T07:02:49.302Z,31.40
2022-07-31T07:05:17.895Z,31.40
2022-07-31T07:07:45.543Z,31.30
2022-07-31T07:10:13.484Z,31.20
2022-07-31T07:12:41.215Z,31.20
2022-07-31T07:17:55.381Z,31.10
2022-07-31T07:20:24.010Z,31.10
2022-07-31T07:22:51.899Z,31.00
2022-07-31T07:25:21.753Z,30.90
2022-07-31T07:27:49.798Z,30.80
2022-07-31T07:30:18.348Z,30.70
2022-07-31T07:32:48.010Z,30.50
2022-07-31T07:35:16.632Z,30.30
2022-07-31T07:37:44.495Z,29.90
2022-07-31T07:40:12.368Z,29.50
2022-07-31T07:42:40.064Z,29.20
2022-07-31T07:45:10.696Z,28.80
2022-07-31T07:48:06.849Z,28.40
2022-07-31T07:50:30.138Z,28.10
2022-07-31T07:52:58.995Z,27.90
2022-07-31T07:55:26.900Z,27.70
2022-07-31T07:57:56.403Z,27.60
2022-07-31T08:00:24.240Z,27.40
2022-07-31T08:03:46.745Z,27.20
2022-07-31T08:05:41.521Z,27.10
2022-07-31T08:08:09.325Z,26.90
2022-07-31T08:10:39.715Z,26.90
2022-07-31T08:13:07.486Z,26.80
2022-07-31T08:15:35.356Z,26.80
2022-07-31T08:18:04.023Z,26.70
2022-07-31T08:20:31.755Z,26.70
2022-07-31T08:22:59.565Z,26.70
2022-07-31T08:25:31.222Z,26.70
2022-07-31T08:28:00.186Z,26.70
2022-07-31T08:30:31.057Z,26.80
2022-07-31T08:32:58.965Z,26.80
2022-07-31T08:35:28.952Z,26.90
2022-07-31T08:38:02.137Z,26.90
2022-07-31T08:40:34.740Z,27.00
2022-07-31T08:43:19.704Z,27.00
2022-07-31T08:46:03.261Z,27.00
2022-07-31T08:48:32.972Z,27.00
2022-07-31T08:51:02.901Z,27.00
2022-07-31T08:53:31.716Z,27.10
2022-07-31T08:55:59.628Z,27.10
2022-07-31T08:58:27.614Z,27.10
2022-07-31T09:00:55.850Z,27.10
2022-07-31T09:03:23.848Z,27.10
2022-07-31T09:05:51.739Z,27.10
2022-07-31T09:08:19.533Z,27.10
2022-07-31T09:10:50.207Z,27.10
2022-07-31T09:13:19.548Z,27.10
2022-07-31T09:15:48.360Z,27.10
2022-07-31T09:18:21.788Z,27.10
2022-07-31T09:21:09.155Z,27.20
2022-07-31T09:23:46.552Z,27.10
2022-07-31T09:26:15.224Z,27.10
2022-07-31T09:28:45.147Z,27.10
2022-07-31T09:31:14.463Z,27.10
2022-07-31T09:33:46.167Z,27.20
2022-07-31T09:36:14.744Z,27.20
2022-07-31T09:38:43.364Z,27.20
2022-07-31T09:41:55.722Z,27.20
2022-07-31T09:44:09.673Z,27.20
2022-07-31T09:46:46.708Z,27.20
2022-07-31T09:49:15.005Z,27.20
2022-07-31T09:51:43.806Z,27.10
2022-07-31T09:54:22.384Z,27.10
2022-07-31T09:56:50.627Z,27.10
2022-07-31T09:59:19.513Z,27.10
2022-07-31T10:01:49.324Z,27.10
2022-07-31T10:04:21.595Z,27.00
2022-07-31T10:06:50.807Z,27.00
2022-07-31T10:09:22.294Z,27.00
2022-07-31T10:11:51.897Z,26.90
2022-07-31T10:14:23.791Z,26.90
2022-07-31T10:16:55.198Z,26.90
2022-07-31T10:19:23.368Z,26.90
2022-07-31T10:21:58.172Z,26.90
2022-07-31T10:24:28.462Z,26.90
2022-07-31T10:27:01.606Z,26.80
2022-07-31T10:29:32.466Z,26.90
2022-07-31T10:32:01.646Z,26.90
2022-07-31T10:34:29.583Z,26.90
2022-07-31T10:37:00.901Z,26.90
2022-07-31T10:39:34.593Z,26.90
2022-07-31T10:42:14.636Z,26.80
2022-07-31T10:44:46.281Z,26.80
2022-07-31T10:47:14.687Z,26.80
2022-07-31T10:49:44.370Z,26.70
2022-07-31T10:52:12.388Z,26.70
2022-07-31T10:54:41.583Z,26.70
2022-07-31T10:57:10.235Z,26.70
2022-07-31T10:59:41.694Z,26.70
2022-07-31T11:02:12.992Z,26.60
2022-07-31T11:04:40.836Z,26.60
2022-07-31T11:07:16.383Z,26.60
2022-07-31T11:09:50.607Z,26.60
2022-07-31T11:12:22.388Z,26.60
2022-07-31T11:14:51.079Z,26.60
2022-07-31T11:17:19.682Z,26.70
2022-07-31T11:20:18.164Z,26.60
2022-07-31T11:22:55.267Z,26.70
2022-07-31T11:25:24.905Z,26.60
2022-07-31T11:27:52.680Z,26.60
2022-07-31T11:30:20.476Z,26.60
2022-07-31T11:32:50.805Z,26.60
2022-07-31T11:35:29.229Z,26.70
2022-07-31T11:37:58.672Z,26.60
2022-07-31T11:40:28.356Z,26.60
2022-07-31T11:45:47.258Z,26.60
2022-07-31T11:48:19.406Z,26.60
2022-07-31T11:50:48.738Z,26.60
2022-07-31T11:53:17.104Z,26.60
2022-07-31T11:55:50.402Z,26.60
2022-07-31T11:58:20.065Z,26.50
2022-07-31T12:00:56.611Z,26.50
2022-07-31T12:03:26.270Z,26.50
2022-07-31T12:05:54.169Z,26.50
2022-07-31T12:08:22.903Z,26.50
2022-07-31T12:10:52.438Z,26.50
2022-07-31T12:13:21.766Z,26.50
2022-07-31T12:16:07.227Z,26.50
2022-07-31T12:18:47.201Z,26.40
2022-07-31T12:21:15.100Z,26.40
2022-07-31T12:23:54.515Z,26.40
2022-07-31T12:26:26.143Z,26.40
2022-07-31T12:29:04.966Z,26.40
2022-07-31T12:31:44.960Z,26.40
2022-07-31T12:34:13.658Z,26.40
2022-07-31T12:36:42.170Z,26.40
2022-07-31T12:39:12.231Z,26.30
2022-07-31T12:41:44.503Z,26.30
2022-07-31T12:44:13.174Z,26.30
2022-07-31T12:46:42.485Z,26.30
2022-07-31T12:49:10.349Z,26.30
2022-07-31T12:51:44.943Z,26.30
2022-07-31T12:54:16.938Z,26.30
2022-07-31T12:56:46.104Z,26.30
2022-07-31T12:59:13.917Z,26.30
2022-07-31T13:01:41.850Z,26.30
2022-07-31T13:04:18.155Z,26.30
2022-07-31T13:06:49.055Z,26.30
2022-07-31T13:09:17.779Z,26.30
2022-07-31T13:11:48.302Z,26.30
2022-07-31T13:14:17.384Z,26.20
2022-07-31T13:16:45.979Z,26.30
2022-07-31T13:19:14.875Z,26.20
2022-07-31T13:21:48.999Z,26.20
2022-07-31T13:24:18.756Z,26.20
2022-07-31T13:26:46.956Z,26.30
2022-07-31T13:29:14.716Z,26.20
2022-07-31T13:31:43.288Z,26.20
2022-07-31T13:34:11.132Z,26.20
2022-07-31T13:36:39.645Z,26.20
2022-07-31T13:39:08.416Z,26.20
2022-07-31T13:41:37.906Z,26.20
2022-07-31T13:44:08.365Z,26.20
2022-07-31T13:46:37.449Z,26.20
2022-07-31T13:49:09.464Z,26.20
2022-07-31T13:51:37.927Z,26.20
2022-07-31T13:54:06.468Z,26.20
2022-07-31T13:56:39.543Z,26.20
2022-07-31T13:59:14.220Z,26.20
2022-07-31T14:02:03.661Z,26.20
2022-07-31T14:04:32.817Z,26.20
2022-07-31T14:07:07.015Z,26.30
2022-07-31T14:09:36.368Z,26.30
2022-07-31T14:12:04.949Z,26.30
2022-07-31T14:14:34.579Z,26.30
2022-07-31T14:17:02.353Z,26.30
2022-07-31T14:19:30.351Z,26.30
2022-07-31T14:22:13.084Z,26.30
2022-07-31T14:24:41.375Z,26.30
2022-07-31T14:27:10.931Z,26.30
2022-07-31T14:29:39.743Z,26.30
2022-07-31T14:32:07.899Z,26.30
2022-07-31T14:34:36.157Z,26.30
2022-07-31T14:37:05.258Z,26.30
2022-07-31T14:39:33.901Z,26.30
2022-07-31T14:42:01.789Z,26.30
2022-07-31T14:44:30.989Z,26.30
2022-07-31T14:46:58.738Z,26.30
2022-07-31T14:50:07.093Z,26.30
2022-07-31T14:52:15.099Z,26.30
2022-07-31T14:54:43.669Z,26.30
2022-07-31T14:57:13.619Z,26.30
2022-07-31T14:59:48.847Z,26.30
2022-07-31T15:02:21.850Z,26.30
2022-07-31T15:04:51.287Z,26.30
2022-07-31T15:07:34.749Z,26.30
2022-07-31T15:10:03.897Z,26.30
2022-07-31T15:12:32.596Z,26.30
2022-07-31T15:15:00.388Z,26.30
2022-07-31T15:17:29.014Z,26.30
2022-07-31T15:19:56.918Z,26.30
2022-07-31T15:22:25.594Z,26.30
2022-07-31T15:24:54.129Z,26.30
2022-07-31T15:27:22.331Z,26.30
2022-07-31T15:30:02.023Z,26.30
2022-07-31T15:32:34.531Z,26.30
2022-07-31T15:35:03.299Z,26.20
2022-07-31T15:37:33.507Z,26.30
2022-07-31T15:40:03.539Z,26.20
2022-07-31T15:42:39.178Z,26.20
2022-07-31T15:45:08.418Z,26.30
2022-07-31T15:47:37.018Z,26.30
2022-07-31T15:50:05.202Z,26.30
2022-07-31T15:52:32.995Z,26.30
2022-07-31T15:55:00.714Z,26.40
2022-07-31T15:57:28.500Z,26.30
2022-07-31T15:59:56.415Z,26.30
2022-07-31T16:02:25.415Z,26.30
2022-07-31T16:04:55.653Z,26.30
2022-07-31T16:08:30.767Z,26.30
2022-07-31T16:10:18.344Z,26.30
2022-07-31T16:12:46.919Z,26.30
2022-07-31T16:15:14.994Z,26.30
2022-07-31T16:17:44.212Z,26.30
2022-07-31T16:20:26.076Z,26.30
2022-07-31T16:22:56.722Z,26.30
2022-07-31T16:25:26.879Z,26.30
2022-07-31T16:27:55.158Z,26.30
2022-07-31T16:30:23.482Z,26.30
2022-07-31T16:32:51.881Z,26.30
2022-07-31T16:35:19.660Z,26.30
2022-07-31T16:37:51.767Z,26.30
2022-07-31T16:40:29.024Z,26.30
2022-07-31T16:43:50.020Z,26.30
2022-07-31T16:45:52.714Z,26.40
2022-07-31T16:48:20.421Z,26.40
2022-07-31T16:50:54.305Z,26.40
2022-07-31T16:54:10.517Z,26.40
2022-07-31T16:56:12.926Z,26.40
2022-07-31T16:58:40.881Z,26.40
2022-07-31T17:01:58.952Z,26.40
2022-07-31T17:04:01.071Z,26.40
2022-07-31T17:06:35.997Z,26.40
2022-07-31T17:09:16.212Z,26.40
2022-07-31T17:11:48.253Z,26.40
2022-07-31T17:14:17.029Z,26.40
2022-07-31T17:16:47.495Z,26.40
2022-07-31T17:19:16.080Z,26.40
2022-07-31T17:21:44.708Z,26.40
2022-07-31T17:24:15.771Z,26.40
2022-07-31T17:26:44.480Z,26.40
2022-07-31T17:29:13.945Z,26.40
2022-07-31T17:31:42.598Z,26.30
2022-07-31T17:34:10.777Z,26.40
2022-07-31T17:36:38.497Z,26.40
2022-07-31T17:39:07.359Z,26.40
2022-07-31T17:41:35.161Z,26.40
2022-07-31T17:44:03.190Z,26.40
2022-07-31T17:46:36.407Z,26.40
2022-07-31T17:49:06.393Z,26.40
2022-07-31T17:51:34.190Z,26.40
2022-07-31T17:54:01.957Z,26.40
2022-07-31T17:56:29.876Z,26.30
2022-07-31T17:59:04.162Z,26.30
2022-07-31T18:01:32.963Z,26.30
2022-07-31T18:04:00.986Z,26.30
2022-07-31T18:06:28.875Z,26.30
2022-07-31T18:08:56.608Z,26.30
2022-07-31T18:11:24.901Z,26.30
2022-07-31T18:13:55.261Z,26.20
2022-07-31T18:16:25.018Z,26.20
2022-07-31T18:18:54.458Z,26.20
2022-07-31T18:21:22.345Z,26.20
2022-07-31T18:23:50.060Z,26.20
2022-07-31T18:26:17.866Z,26.20
2022-07-31T18:28:45.662Z,26.20
2022-07-31T18:31:34.350Z,26.20
2022-07-31T18:34:02.072Z,26.20
2022-07-31T18:36:30.610Z,26.20
2022-07-31T18:38:58.423Z,26.20
2022-07-31T18:41:26.205Z,26.20
2022-07-31T18:43:54.865Z,26.20
2022-07-31T18:46:24.004Z,26.20
2022-07-31T18:48:55.445Z,26.20
2022-07-31T18:51:27.012Z,26.20
2022-07-31T18:53:55.046Z,26.20
2022-07-31T18:56:23.938Z,26.10
2022-07-31T18:58:52.187Z,26.10
2022-07-31T19:01:20.604Z,26.10
2022-07-31T19:03:49.333Z,26.10
2022-07-31T19:06:18.150Z,26.10
2022-07-31T19:08:46.441Z,26.10
2022-07-31T19:11:14.255Z,26.10
2022-07-31T19:13:42.807Z,26.10
2022-07-31T19:16:10.585Z,26.10
2022-07-31T19:18:40.685Z,26.10
2022-07-31T19:21:19.100Z,26.10
2022-07-31T19:23:57.391Z,26.10
2022-07-31T19:26:25.166Z,26.10
2022-07-31T19:28:52.912Z,26.10
2022-07-31T19:31:20.679Z,26.10
2022-07-31T19:33:49.299Z,26.10
2022-07-31T19:36:17.754Z,26.10
2022-07-31T19:38:45.632Z,26.10
2022-07-31T19:41:14.119Z,26.10
2022-07-31T19:43:42.282Z,26.10
2022-07-31T19:46:12.740Z,26.00
2022-07-31T19:48:44.725Z,26.00
2022-07-31T19:51:13.238Z,26.00
2022-07-31T19:53:41.996Z,26.00
2022-07-31T19:56:10.386Z,26.00
2022-07-31T19:58:38.732Z,25.90
2022-07-31T20:01:06.769Z,25.90
2022-07-31T20:03:35.742Z,25.90
2022-07-31T20:06:04.298Z,25.90
2022-07-31T20:08:33.667Z,25.80
2022-07-31T20:11:04.409Z,25.90
2022-07-31T20:13:33.048Z,25.90
2022-07-31T20:16:01.976Z,25.90
2022-07-31T20:18:31.619Z,25.90
2022-07-31T20:21:01.202Z,25.90
2022-07-31T20:23:29.785Z,25.90
2022-07-31T20:25:58.593Z,25.90
2022-07-31T20:28:27.041Z,25.90
2022-07-31T20:30:55.122Z,25.80
2022-07-31T20:33:23.813Z,25.80
2022-07-31T20:35:51.661Z,25.90
2022-07-31T20:38:20.166Z,25.80
2022-07-31T20:40:54.761Z,25.80
2022-07-31T20:43:25.896Z,25.80
2022-07-31T20:45:54.792Z,25.80
2022-07-31T20:48:24.766Z,25.80
2022-07-31T20:50:52.962Z,25.80
2022-07-31T20:53:21.982Z,25.80
2022-07-31T20:55:51.501Z,25.80
2022-07-31T20:58:19.989Z,25.90
2022-07-31T21:00:48.582Z,25.90
2022-07-31T21:03:17.528Z,25.90
2022-07-31T21:05:45.562Z,25.90
2022-07-31T21:08:14.298Z,25.90
2022-07-31T21:10:42.193Z,25.90
2022-07-31T21:13:09.975Z,25.90
2022-07-31T21:15:43.990Z,25.90
2022-07-31T21:18:16.207Z,25.90
2022-07-31T21:20:51.264Z,25.90
2022-07-31T21:23:23.513Z,25.90
2022-07-31T21:25:52.936Z,25.90
2022-07-31T21:28:22.649Z,25.90
2022-07-31T21:30:50.608Z,25.90
2022-07-31T21:33:19.222Z,25.90
2022-07-31T21:35:47.353Z,25.90
2022-07-31T21:38:19.409Z,26.00
2022-07-31T21:40:47.711Z,26.00
2022-07-31T21:43:18.740Z,26.00
2022-07-31T21:45:57.372Z,26.00
2022-07-31T21:48:30.847Z,26.00
2022-07-31T21:50:58.994Z,26.00
2022-07-31T21:53:27.701Z,26.00
2022-07-31T21:55:56.940Z,26.00
2022-07-31T21:58:24.958Z,26.00
2022-07-31T22:00:53.611Z,26.00
2022-07-31T22:03:21.345Z,26.00
2022-07-31T22:06:01.293Z,26.00
2022-07-31T22:08:28.992Z,26.00
2022-07-31T22:10:56.729Z,26.00
2022-07-31T22:13:24.464Z,26.00
2022-07-31T22:15:59.779Z,26.00
2022-07-31T22:18:30.489Z,26.00
2022-07-31T22:20:59.180Z,26.00
2022-07-31T22:23:27.861Z,26.00
2022-07-31T22:25:56.023Z,26.00
2022-07-31T22:28:24.546Z,25.90
2022-07-31T22:30:53.851Z,26.00
2022-07-31T22:33:22.256Z,25.90
2022-07-31T22:35:58.616Z,25.90
2022-07-31T22:38:30.658Z,25.90
2022-07-31T22:41:00.063Z,25.90
2022-07-31T22:44:10.316Z,26.00
2022-07-31T22:46:16.575Z,25.90
2022-07-31T22:48:45.131Z,26.00
2022-07-31T22:51:14.872Z,26.00
2022-07-31T22:53:44.251Z,26.00
2022-07-31T22:56:12.184Z,26.00
2022-07-31T22:58:40.152Z,26.00
2022-07-31T23:01:08.667Z,26.00
2022-07-31T23:03:36.374Z,26.00
2022-07-31T23:06:31.337Z,26.00
2022-07-31T23:08:54.647Z,26.00
2022-07-31T23:11:24.630Z,26.00
2022-07-31T23:13:52.554Z,26.00
2022-07-31T23:16:20.776Z,26.00
2022-07-31T23:18:49.166Z,26.00
2022-07-31T23:21:18.293Z,26.00
2022-07-31T23:23:47.941Z,26.00
2022-07-31T23:26:19.302Z,26.00
2022-07-31T23:28:47.614Z,26.00
2022-07-31T23:31:15.868Z,26.00
2022-07-31T23:33:44.637Z,26.00
2022-07-31T23:36:13.017Z,26.00
2022-07-31T23:38:41.986Z,26.10
2022-07-31T23:41:10.837Z,26.10
2022-07-31T23:43:38.698Z,26.10
2022-07-31T23:46:06.478Z,26.10
2022-07-31T23:48:39.425Z,26.10
2022-07-31T23:51:07.226Z,26.10
2022-07-31T23:53:34.948Z,26.10
2022-07-31T23:56:03.505Z,26.10
2022-07-31T23:58:32.241Z,26.10
